Time;durP1;ratioP1;P1;durP2;ratioP2;P2;SDS_P1;SDS_P2;PMS_P1;PMS_P2;Temp;Humidity;BMP_temperature;BMP_pressure;BME280_temperature;BME280_humidity;BME280_pressure;Samples;Min_cycle;Max_cycle;Signal;HPM_P1;HPM_P2
2021/11/26 00:00:31;;;;;;;9.13;2.22;;;4.30;99.90;;;;;;6180957;23;20017;-75
2021/11/26 00:02:57;;;;;;;11.90;2.85;;;4.30;99.90;;;;;;6180365;23;20017;-76
2021/11/26 00:05:23;;;;;;;17.48;2.83;;;4.30;99.90;;;;;;6154040;23;20032;-76
2021/11/26 00:07:48;;;;;;;9.27;2.53;;;4.40;99.90;;;;;;6155945;23;20013;-76
2021/11/26 00:10:14;;;;;;;13.75;2.30;;;4.50;99.90;;;;;;6179486;23;20032;-76
2021/11/26 00:12:46;;;;;;;10.82;2.20;;;4.30;99.90;;;;;;6156717;23;20030;-76
2021/11/26 00:16:02;;;;;;;8.73;1.85;;;4.40;99.90;;;;;;6179564;23;20019;-76
2021/11/26 00:18:04;;;;;;;6.00;2.00;;;4.40;99.90;;;;;;6155042;23;20326;-76
2021/11/26 00:20:34;;;;;;;9.52;2.20;;;4.40;99.90;;;;;;6182494;23;20092;-76
2021/11/26 00:22:59;;;;;;;10.35;2.25;;;4.40;99.90;;;;;;6156572;23;20017;-76
2021/11/26 00:25:25;;;;;;;8.90;1.95;;;4.40;99.90;;;;;;6178491;23;20036;-76
2021/11/26 00:27:51;;;;;;;11.18;1.88;;;4.40;99.90;;;;;;6180902;23;20090;-76
2021/11/26 00:30:17;;;;;;;7.10;1.65;;;4.50;99.90;;;;;;6181275;23;20037;-76
2021/11/26 00:32:44;;;;;;;9.40;1.98;;;4.50;99.90;;;;;;6181816;23;20108;-76
2021/11/26 00:35:15;;;;;;;10.57;2.03;;;4.40;99.90;;;;;;6154515;23;20020;-76
2021/11/26 00:37:42;;;;;;;12.00;1.67;;;4.50;99.90;;;;;;6179169;23;20024;-76
2021/11/26 00:40:08;;;;;;;9.40;1.85;;;4.50;99.90;;;;;;6180877;23;20092;-76
2021/11/26 00:42:34;;;;;;;7.15;1.63;;;4.50;99.90;;;;;;6181271;23;20028;-76
2021/11/26 00:44:59;;;;;;;9.00;2.13;;;4.50;99.90;;;;;;6155928;23;20013;-76
2021/11/26 00:47:26;;;;;;;9.88;2.10;;;4.50;99.90;;;;;;6182041;23;20016;-76
2021/11/26 00:49:52;;;;;;;9.35;2.10;;;4.40;99.90;;;;;;6176894;23;20077;-76
2021/11/26 00:52:18;;;;;;;13.10;2.20;;;4.50;99.90;;;;;;6179855;23;20049;-76
2021/11/26 00:54:44;;;;;;;10.05;2.17;;;4.40;99.90;;;;;;6178058;23;20095;-77
2021/11/26 00:57:10;;;;;;;14.45;1.88;;;4.40;99.90;;;;;;6154894;23;20052;-77
2021/11/26 00:59:37;;;;;;;13.30;2.10;;;4.30;99.90;;;;;;6180249;23;20063;-77
2021/11/26 01:02:05;;;;;;;9.02;2.42;;;4.30;99.90;;;;;;6156066;23;20123;-77
2021/11/26 01:04:32;;;;;;;10.55;2.10;;;4.30;99.90;;;;;;6179820;23;20437;-77
2021/11/26 01:06:58;;;;;;;10.93;1.95;;;4.20;99.90;;;;;;6156009;23;20040;-77
2021/11/26 01:09:24;;;;;;;11.68;1.60;;;4.20;99.90;;;;;;6180370;23;20410;-77
2021/11/26 01:11:49;;;;;;;4.93;1.60;;;4.20;99.90;;;;;;6180510;23;20338;-76
2021/11/26 01:14:15;;;;;;;12.73;1.90;;;4.20;99.90;;;;;;6180951;23;20192;-76
2021/11/26 01:16:41;;;;;;;6.13;1.95;;;4.10;99.90;;;;;;6180968;23;20009;-76
2021/11/26 01:19:07;;;;;;;9.13;2.10;;;4.10;99.90;;;;;;6180577;23;20017;-77
2021/11/26 01:21:32;;;;;;;8.20;1.92;;;4.00;99.90;;;;;;6181116;23;20048;-77
2021/11/26 01:23:58;;;;;;;9.13;1.80;;;4.00;99.90;;;;;;6181128;23;20390;-76
2021/11/26 01:26:25;;;;;;;8.45;1.98;;;4.00;99.90;;;;;;6181525;23;20105;-76
2021/11/26 01:28:51;;;;;;;7.30;1.70;;;4.00;99.90;;;;;;6156489;23;20028;-76
2021/11/26 01:31:17;;;;;;;11.25;1.88;;;4.00;99.90;;;;;;6181297;23;20017;-76
2021/11/26 01:33:43;;;;;;;7.13;1.83;;;3.90;99.90;;;;;;6179995;23;20009;-76
2021/11/26 01:36:09;;;;;;;9.18;1.92;;;3.90;99.90;;;;;;6180597;23;20016;-76
2021/11/26 01:38:34;;;;;;;13.32;1.77;;;3.90;99.90;;;;;;6181261;23;20013;-77
2021/11/26 01:41:00;;;;;;;8.77;1.50;;;3.90;99.90;;;;;;6181259;23;20093;-77
2021/11/26 01:43:27;;;;;;;11.48;1.55;;;4.00;99.90;;;;;;6155750;23;20024;-76
2021/11/26 01:45:55;;;;;;;7.45;1.40;;;4.10;99.90;;;;;;6180802;23;20402;-76
2021/11/26 01:48:22;;;;;;;10.15;1.60;;;4.10;99.90;;;;;;6180588;23;20024;-76
2021/11/26 01:50:50;;;;;;;6.55;1.30;;;4.30;99.90;;;;;;6180657;23;20476;-76
2021/11/26 01:53:16;;;;;;;6.18;1.33;;;4.30;99.90;;;;;;6181050;23;20146;-76
2021/11/26 01:55:42;;;;;;;6.53;1.60;;;4.30;99.90;;;;;;6181175;23;20063;-76
2021/11/26 01:58:11;;;;;;;11.00;1.20;;;4.30;99.90;;;;;;6155818;23;20048;-76
2021/11/26 02:00:41;;;;;;;9.15;1.38;;;4.30;99.90;;;;;;6156252;23;20479;-76
2021/11/26 02:03:06;;;;;;;6.00;1.23;;;4.30;99.90;;;;;;6180846;23;20017;-76
2021/11/26 02:05:32;;;;;;;7.38;1.40;;;4.30;99.90;;;;;;6155399;23;20024;-76
2021/11/26 02:07:57;;;;;;;6.28;1.20;;;4.30;99.90;;;;;;6181153;23;20013;-76
2021/11/26 02:10:23;;;;;;;6.43;1.33;;;4.30;99.90;;;;;;6154653;23;20033;-76
2021/11/26 02:12:49;;;;;;;5.53;1.33;;;4.30;99.90;;;;;;6183339;23;20028;-77
2021/11/26 02:15:25;;;;;;;11.27;1.50;;;4.30;99.90;;;;;;6181289;23;20395;-77
2021/11/26 02:17:52;;;;;;;6.80;1.42;;;4.30;99.90;;;;;;6180754;23;20044;-76
2021/11/26 02:20:21;;;;;;;4.57;1.00;;;4.30;99.90;;;;;;6180585;23;20024;-77
2021/11/26 02:22:47;;;;;;;3.50;1.10;;;4.20;99.90;;;;;;6181628;23;20020;-76
2021/11/26 02:25:13;;;;;;;3.45;0.98;;;4.20;99.90;;;;;;6181139;23;20016;-77
2021/11/26 02:27:39;;;;;;;12.00;1.45;;;4.20;99.90;;;;;;6181467;23;20020;-76
2021/11/26 02:30:16;;;;;;;7.72;1.25;;;4.20;99.90;;;;;;6182862;23;20066;-77
2021/11/26 02:32:53;;;;;;;8.73;1.23;;;4.20;99.90;;;;;;6157911;23;20023;-77
2021/11/26 02:35:19;;;;;;;3.80;1.10;;;4.20;99.90;;;;;;6182723;23;20023;-76
2021/11/26 02:37:45;;;;;;;11.27;1.52;;;4.10;99.90;;;;;;6182879;23;20094;-76
2021/11/26 02:40:14;;;;;;;8.05;1.30;;;4.10;99.90;;;;;;6158256;23;20063;-75
2021/11/26 02:42:40;;;;;;;7.18;0.90;;;4.10;99.90;;;;;;6183502;23;20096;-77
2021/11/26 02:45:10;;;;;;;12.82;1.23;;;4.10;99.90;;;;;;6183051;23;20100;-77
2021/11/26 02:47:37;;;;;;;9.63;1.40;;;4.10;99.90;;;;;;6184418;23;20016;-77
2021/11/26 02:50:06;;;;;;;8.27;1.38;;;4.10;99.90;;;;;;6157048;23;20017;-77
2021/11/26 02:52:34;;;;;;;5.65;1.20;;;4.10;99.90;;;;;;6182737;23;20020;-77
2021/11/26 02:54:59;;;;;;;4.45;1.00;;;4.10;99.90;;;;;;6182650;23;20333;-76
2021/11/26 02:57:25;;;;;;;6.00;1.20;;;4.10;99.90;;;;;;6182776;23;20092;-77
2021/11/26 02:59:51;;;;;;;6.93;1.60;;;4.10;99.90;;;;;;6157637;23;20085;-77
2021/11/26 03:02:17;;;;;;;6.97;1.50;;;4.00;99.90;;;;;;6181656;23;20107;-77
2021/11/26 03:04:42;;;;;;;3.00;0.90;;;4.10;99.90;;;;;;6182305;23;20023;-76
2021/11/26 03:07:45;;;;;;;6.95;0.90;;;4.00;99.90;;;;;;6157675;23;20019;-77
2021/11/26 03:10:17;;;;;;;7.72;0.93;;;4.00;99.90;;;;;;6181058;23;20434;-76
2021/11/26 03:12:48;;;;;;;3.83;1.02;;;4.00;99.90;;;;;;6103979;23;20017;-77
2021/11/26 03:15:15;;;;;;;7.78;0.88;;;4.00;99.90;;;;;;6128452;23;20437;-77
2021/11/26 03:17:41;;;;;;;5.45;0.90;;;4.20;99.90;;;;;;6102865;23;20399;-76
2021/11/26 03:20:07;;;;;;;7.00;1.17;;;4.00;99.90;;;;;;6127988;23;20088;-76
2021/11/26 03:22:33;;;;;;;4.35;0.95;;;4.00;99.90;;;;;;6103749;23;20052;-77
2021/11/26 03:24:59;;;;;;;6.10;0.80;;;4.00;99.90;;;;;;6128124;23;20021;-76
2021/11/26 03:27:24;;;;;;;4.72;0.90;;;4.00;99.90;;;;;;6102921;23;20018;-76
2021/11/26 03:29:50;;;;;;;5.30;0.80;;;4.00;99.90;;;;;;6127834;23;20461;-77
2021/11/26 03:32:16;;;;;;;8.02;1.10;;;4.00;99.90;;;;;;6127353;23;20286;-76
2021/11/26 03:34:41;;;;;;;8.60;1.10;;;4.00;99.90;;;;;;6127626;23;20333;-77
2021/11/26 03:37:07;;;;;;;5.30;1.13;;;4.00;99.90;;;;;;6128526;23;20393;-77
2021/11/26 03:39:33;;;;;;;4.35;0.85;;;4.10;99.90;;;;;;6127609;23;20346;-77
2021/11/26 03:41:59;;;;;;;6.32;1.10;;;4.10;99.90;;;;;;6128037;23;20017;-76
2021/11/26 03:44:24;;;;;;;8.38;1.40;;;4.10;99.90;;;;;;6102628;23;20017;-76
2021/11/26 03:46:50;;;;;;;5.47;0.73;;;4.10;99.90;;;;;;6103397;23;20476;-76
2021/11/26 03:49:16;;;;;;;7.95;1.05;;;4.10;99.90;;;;;;6126461;23;20744;-77
2021/11/26 03:51:41;;;;;;;6.65;1.02;;;4.10;99.90;;;;;;6127957;23;20021;-77
2021/11/26 03:54:07;;;;;;;10.23;0.93;;;4.10;99.90;;;;;;6127693;23;20068;-77
2021/11/26 03:56:33;;;;;;;4.93;0.95;;;4.10;99.90;;;;;;6103316;23;20009;-76
2021/11/26 03:58:58;;;;;;;8.45;1.38;;;4.10;99.90;;;;;;6127981;23;20013;-77
2021/11/26 04:01:24;;;;;;;3.72;0.93;;;4.10;99.90;;;;;;6127602;23;20496;-76
2021/11/26 04:03:50;;;;;;;10.13;1.30;;;4.10;99.90;;;;;;6102278;23;20124;-77
2021/11/26 04:06:15;;;;;;;2.70;1.02;;;4.00;99.90;;;;;;6103288;23;20342;-77
2021/11/26 04:08:41;;;;;;;8.40;1.08;;;4.00;99.90;;;;;;6127830;23;20017;-77
2021/11/26 04:11:07;;;;;;;10.48;1.05;;;3.90;99.90;;;;;;6147448;23;20020;-77
2021/11/26 04:13:32;;;;;;;6.22;0.95;;;3.90;99.90;;;;;;6181997;23;20441;-77
2021/11/26 04:16:03;;;;;;;4.22;0.80;;;3.80;99.90;;;;;;6181648;23;20326;-77
2021/11/26 04:18:29;;;;;;;7.68;0.95;;;3.80;99.90;;;;;;6181581;23;20017;-77
2021/11/26 04:20:55;;;;;;;3.55;1.10;;;3.80;99.90;;;;;;6156312;23;20009;-77
2021/11/26 04:23:21;;;;;;;7.18;1.10;;;3.70;99.90;;;;;;6157369;23;20065;-77
2021/11/26 04:25:46;;;;;;;12.32;1.13;;;3.70;99.90;;;;;;6156976;23;20456;-77
2021/11/26 04:28:12;;;;;;;5.07;1.40;;;3.70;99.90;;;;;;6181549;23;20299;-77
2021/11/26 04:30:38;;;;;;;6.63;1.05;;;3.60;99.90;;;;;;6181762;23;20064;-77
2021/11/26 04:33:03;;;;;;;6.65;0.85;;;3.60;99.90;;;;;;6181698;23;20325;-76
2021/11/26 04:35:29;;;;;;;3.17;0.93;;;3.60;99.90;;;;;;6181655;23;20044;-77
2021/11/26 04:37:55;;;;;;;4.88;1.30;;;3.70;99.90;;;;;;6182254;23;20013;-77
2021/11/26 04:40:21;;;;;;;5.50;1.25;;;3.70;99.90;;;;;;6181358;23;20059;-77
2021/11/26 04:42:47;;;;;;;6.20;0.93;;;3.60;99.90;;;;;;6156898;23;20310;-77
2021/11/26 04:45:15;;;;;;;3.85;1.00;;;3.60;99.90;;;;;;6181733;23;20278;-77
2021/11/26 04:47:41;;;;;;;8.05;1.42;;;3.60;99.90;;;;;;6181389;23;20119;-77
2021/11/26 04:50:09;;;;;;;6.18;1.17;;;3.60;99.90;;;;;;6181457;23;20017;-77
2021/11/26 04:52:35;;;;;;;4.90;0.90;;;3.60;99.90;;;;;;6181679;23;20044;-78
2021/11/26 04:55:01;;;;;;;10.85;1.10;;;3.60;99.90;;;;;;6181553;23;20036;-78
2021/11/26 04:57:26;;;;;;;4.88;0.88;;;3.60;99.90;;;;;;6181459;23;20028;-78
2021/11/26 04:59:52;;;;;;;5.45;0.90;;;3.60;99.90;;;;;;6181336;23;20049;-78
2021/11/26 05:02:18;;;;;;;4.70;0.77;;;3.60;99.90;;;;;;6155564;23;20017;-78
2021/11/26 05:04:43;;;;;;;4.72;0.70;;;3.60;99.90;;;;;;6180812;23;20313;-78
2021/11/26 05:07:10;;;;;;;6.25;1.02;;;3.70;99.90;;;;;;6182178;23;20025;-77
2021/11/26 05:09:36;;;;;;;4.32;0.70;;;3.70;99.90;;;;;;6181155;23;20048;-78
2021/11/26 05:12:03;;;;;;;6.10;0.80;;;3.70;99.90;;;;;;6139557;23;20017;-78
2021/11/26 05:14:30;;;;;;;5.03;0.80;;;3.70;99.90;;;;;;6127014;23;20013;-77
2021/11/26 05:16:56;;;;;;;7.20;0.60;;;3.70;99.90;;;;;;6127382;23;20088;-78
2021/11/26 05:19:22;;;;;;;5.60;0.80;;;3.70;99.90;;;;;;6101551;23;20460;-77
2021/11/26 05:21:49;;;;;;;2.95;0.73;;;3.70;99.90;;;;;;6102749;23;20055;-78
2021/11/26 05:24:14;;;;;;;5.95;0.95;;;3.80;99.90;;;;;;6101321;23;20022;-79
2021/11/26 05:26:40;;;;;;;4.28;0.70;;;3.90;99.90;;;;;;6153036;23;20018;-79
2021/11/26 05:29:08;;;;;;;5.53;0.88;;;3.70;99.90;;;;;;6126777;23;20116;-80
2021/11/26 05:31:36;;;;;;;5.70;0.80;;;3.70;99.90;;;;;;6127344;23;20410;-77
2021/11/26 05:34:06;;;;;;;3.00;0.65;;;3.70;99.90;;;;;;6099847;23;20692;-76
2021/11/26 05:36:32;;;;;;;3.53;0.80;;;3.70;99.90;;;;;;6126250;23;20010;-76
2021/11/26 05:38:58;;;;;;;4.53;0.88;;;3.70;99.90;;;;;;6125800;23;20024;-76
2021/11/26 05:41:24;;;;;;;8.57;1.00;;;3.70;99.90;;;;;;6101020;23;20017;-76
2021/11/26 05:43:50;;;;;;;6.85;0.98;;;3.80;99.90;;;;;;6125251;23;20442;-76
2021/11/26 05:46:16;;;;;;;11.40;1.13;;;3.90;99.90;;;;;;6125783;23;20069;-77
2021/11/26 05:48:42;;;;;;;4.53;0.80;;;3.80;99.90;;;;;;6100893;23;20743;-76
2021/11/26 05:51:08;;;;;;;5.47;0.98;;;3.80;99.90;;;;;;6126619;23;20100;-76
2021/11/26 05:53:34;;;;;;;7.18;1.00;;;3.80;99.90;;;;;;6102179;23;20444;-76
2021/11/26 05:56:00;;;;;;;4.22;0.80;;;3.80;99.90;;;;;;6101600;23;20104;-76
2021/11/26 05:58:27;;;;;;;8.95;1.20;;;3.80;99.90;;;;;;6127216;23;20012;-75
2021/11/26 06:00:54;;;;;;;9.23;1.02;;;3.70;99.90;;;;;;6126546;23;20014;-76
2021/11/26 06:03:20;;;;;;;8.80;1.15;;;3.70;99.90;;;;;;6126144;23;20059;-77
2021/11/26 06:05:45;;;;;;;6.68;1.08;;;3.70;99.90;;;;;;6125711;23;20013;-77
2021/11/26 06:08:11;;;;;;;6.93;1.13;;;3.70;99.90;;;;;;6101866;23;20377;-77
2021/11/26 06:10:37;;;;;;;9.43;1.40;;;3.60;99.90;;;;;;6133992;23;20017;-77
2021/11/26 06:13:03;;;;;;;6.82;0.90;;;3.60;99.90;;;;;;6181078;23;20079;-77
2021/11/26 06:15:28;;;;;;;10.25;1.13;;;3.60;99.90;;;;;;6155391;23;20046;-78
2021/11/26 06:17:54;;;;;;;13.25;1.20;;;3.60;99.90;;;;;;6179836;23;20048;-77
2021/11/26 06:20:21;;;;;;;4.57;0.90;;;3.60;99.90;;;;;;6154319;23;20013;-78
2021/11/26 06:22:47;;;;;;;8.30;1.40;;;3.50;99.90;;;;;;6180382;23;20017;-78
2021/11/26 06:25:16;;;;;;;11.80;1.38;;;3.50;99.90;;;;;;6181083;23;20020;-78
2021/11/26 06:27:43;;;;;;;6.53;1.20;;;3.50;99.90;;;;;;6156243;23;20021;-78
2021/11/26 06:30:13;;;;;;;9.48;1.50;;;3.50;99.90;;;;;;6180720;23;20024;-77
2021/11/26 06:32:43;;;;;;;11.93;1.27;;;3.50;99.90;;;;;;6180885;23;20091;-78
2021/11/26 06:35:11;;;;;;;11.63;1.30;;;3.50;99.90;;;;;;6156017;23;20047;-78
2021/11/26 06:37:37;;;;;;;5.53;1.00;;;3.50;99.90;;;;;;6180484;23;20442;-78
2021/11/26 06:40:04;;;;;;;6.65;1.00;;;3.50;99.90;;;;;;6180019;23;20068;-78
2021/11/26 06:42:30;;;;;;;3.30;0.90;;;3.50;99.90;;;;;;6179786;23;20068;-76
2021/11/26 06:44:56;;;;;;;5.72;1.10;;;3.50;99.90;;;;;;6179641;23;20009;-77
2021/11/26 06:47:21;;;;;;;7.80;1.05;;;3.50;99.90;;;;;;6178940;23;20013;-76
2021/11/26 06:49:48;;;;;;;6.15;1.17;;;3.50;99.90;;;;;;6178686;23;20336;-77
2021/11/26 06:52:15;;;;;;;11.77;1.70;;;3.50;99.90;;;;;;6180753;23;20020;-76
2021/11/26 06:54:40;;;;;;;11.05;1.67;;;3.50;99.90;;;;;;6154984;23;20115;-77
2021/11/26 06:57:06;;;;;;;6.90;1.98;;;3.50;99.90;;;;;;6156295;23;20021;-77
2021/11/26 06:59:32;;;;;;;6.15;1.98;;;3.50;99.90;;;;;;6155572;23;20064;-77
2021/11/26 07:01:57;;;;;;;8.27;2.15;;;3.50;99.90;;;;;;6180058;23;20016;-78
2021/11/26 07:04:24;;;;;;;8.88;2.20;;;3.60;99.90;;;;;;6178036;23;20398;-78
2021/11/26 07:06:49;;;;;;;7.20;2.47;;;3.50;99.90;;;;;;6154776;23;20017;-77
2021/11/26 07:09:15;;;;;;;9.38;2.97;;;3.50;99.90;;;;;;6154857;23;20024;-77
2021/11/26 07:11:41;;;;;;;8.60;2.97;;;3.50;99.90;;;;;;6179227;23;20017;-77
2021/11/26 07:14:07;;;;;;;10.80;3.25;;;3.50;99.90;;;;;;6180030;23;20049;-77
2021/11/26 07:16:32;;;;;;;7.35;2.97;;;3.50;99.90;;;;;;6155943;23;20020;-76
2021/11/26 07:18:59;;;;;;;8.90;2.65;;;3.50;99.90;;;;;;6156233;23;20637;-76
2021/11/26 07:21:24;;;;;;;11.43;3.15;;;3.50;99.90;;;;;;6182011;23;20071;-77
2021/11/26 07:23:50;;;;;;;6.28;2.42;;;3.60;99.90;;;;;;6181943;23;20028;-77
2021/11/26 07:26:16;;;;;;;11.10;2.28;;;3.50;99.90;;;;;;6180325;23;20021;-83
2021/11/26 07:28:42;;;;;;;8.02;2.47;;;3.50;99.90;;;;;;6181333;23;20013;-76
2021/11/26 07:31:09;;;;;;;7.57;2.47;;;3.50;99.90;;;;;;6182274;23;20009;-79
2021/11/26 07:33:35;;;;;;;6.30;2.40;;;3.50;99.90;;;;;;6156470;23;20052;-77
2021/11/26 07:36:00;;;;;;;6.45;2.20;;;3.50;99.90;;;;;;6156214;23;20013;-77
2021/11/26 07:38:26;;;;;;;9.40;2.70;;;3.50;99.90;;;;;;6158018;23;20012;-79
2021/11/26 07:40:53;;;;;;;7.30;3.10;;;3.50;99.90;;;;;;6156842;23;20023;-78
2021/11/26 07:43:20;;;;;;;10.55;2.85;;;3.70;99.90;;;;;;6158006;23;20103;-77
2021/11/26 07:45:46;;;;;;;8.45;2.50;;;3.50;99.90;;;;;;6182146;23;20349;-79
2021/11/26 07:48:12;;;;;;;9.27;2.67;;;3.60;99.90;;;;;;6156747;23;20020;-77
2021/11/26 07:50:38;;;;;;;7.45;2.22;;;3.60;99.90;;;;;;6182109;23;20008;-77
2021/11/26 07:53:04;;;;;;;8.75;2.70;;;3.60;99.90;;;;;;6182209;23;20021;-76
2021/11/26 07:55:31;;;;;;;8.98;2.60;;;3.60;99.90;;;;;;6157312;23;20060;-75
2021/11/26 07:57:56;;;;;;;13.07;2.83;;;3.70;99.90;;;;;;6182007;23;20092;-76
2021/11/26 08:00:22;;;;;;;7.45;2.45;;;3.70;99.90;;;;;;6182317;23;20386;-75
2021/11/26 08:02:49;;;;;;;11.32;3.17;;;3.80;99.90;;;;;;6181634;23;20013;-79
2021/11/26 08:05:14;;;;;;;12.95;3.33;;;4.50;99.90;;;;;;6156953;23;20354;-79
2021/11/26 08:07:41;;;;;;;14.60;2.97;;;3.80;99.90;;;;;;6182820;23;20019;-79
2021/11/26 08:10:09;;;;;;;10.45;2.85;;;3.80;99.90;;;;;;6157057;23;20019;-78
2021/11/26 08:12:39;;;;;;;14.05;2.75;;;3.80;99.90;;;;;;6104248;23;20449;-79
2021/11/26 08:15:07;;;;;;;14.95;2.65;;;3.80;99.90;;;;;;6104038;23;20013;-79
2021/11/26 08:17:33;;;;;;;6.50;2.42;;;3.80;99.90;;;;;;6104022;23;20120;-80
2021/11/26 08:19:59;;;;;;;15.32;2.67;;;3.80;99.90;;;;;;6101923;23;20433;-76
2021/11/26 08:22:25;;;;;;;10.95;2.50;;;3.90;99.90;;;;;;6126681;23;20013;-76
2021/11/26 08:24:50;;;;;;;12.07;2.38;;;4.00;99.90;;;;;;6127711;23;20065;-78
2021/11/26 08:27:16;;;;;;;10.52;2.45;;;4.00;99.90;;;;;;6128136;23;20088;-77
2021/11/26 08:29:42;;;;;;;9.32;2.47;;;4.00;99.90;;;;;;6103343;23;20013;-78
2021/11/26 08:32:08;;;;;;;13.93;2.20;;;4.10;99.90;;;;;;6127507;23;20092;-75
2021/11/26 08:34:33;;;;;;;13.20;2.35;;;4.10;99.90;;;;;;6127541;23;20018;-76
2021/11/26 08:36:59;;;;;;;9.18;2.10;;;4.10;99.90;;;;;;6104789;23;20370;-77
2021/11/26 08:39:25;;;;;;;12.10;2.10;;;4.10;99.90;;;;;;6128728;23;20010;-77
2021/11/26 08:41:51;;;;;;;9.25;2.38;;;4.10;99.90;;;;;;6128682;23;20013;-77
2021/11/26 08:44:16;;;;;;;14.60;2.67;;;4.10;99.90;;;;;;6128848;23;20024;-78
2021/11/26 08:46:43;;;;;;;10.52;2.10;;;4.10;99.90;;;;;;6129012;23;20014;-77
2021/11/26 08:49:08;;;;;;;11.63;2.30;;;4.20;99.90;;;;;;6127450;23;20021;-77
2021/11/26 08:51:37;;;;;;;7.93;2.40;;;4.20;99.90;;;;;;6127642;23;20047;-77
2021/11/26 08:54:03;;;;;;;15.68;2.60;;;4.20;99.90;;;;;;6102593;23;20317;-77
2021/11/26 08:56:29;;;;;;;10.65;2.15;;;4.20;99.90;;;;;;6128068;23;20016;-77
2021/11/26 08:58:55;;;;;;;10.02;2.67;;;4.20;99.90;;;;;;6103478;23;20044;-79
2021/11/26 09:01:21;;;;;;;13.40;2.17;;;4.50;99.90;;;;;;6128390;23;20016;-80
2021/11/26 09:03:49;;;;;;;11.20;2.53;;;4.60;99.90;;;;;;6152768;23;20501;-76
2021/11/26 09:06:20;;;;;;;13.27;2.53;;;4.40;99.90;;;;;;6101563;23;20052;-77
2021/11/26 09:08:46;;;;;;;12.32;2.45;;;4.30;99.90;;;;;;6125381;23;20092;-77
2021/11/26 09:11:12;;;;;;;11.30;2.30;;;4.30;99.90;;;;;;6149034;23;20091;-78
2021/11/26 09:13:38;;;;;;;8.65;1.98;;;4.40;99.90;;;;;;6181488;23;20392;-78
2021/11/26 09:16:04;;;;;;;9.85;2.33;;;4.30;99.90;;;;;;6182261;23;20017;-76
2021/11/26 09:18:30;;;;;;;11.75;2.47;;;4.30;99.90;;;;;;6181195;23;20441;-78
2021/11/26 09:20:56;;;;;;;11.57;2.63;;;4.40;99.90;;;;;;6156400;23;20056;-75
2021/11/26 09:23:22;;;;;;;8.48;2.17;;;4.40;99.90;;;;;;6157345;23;20013;-78
2021/11/26 09:25:48;;;;;;;7.57;2.22;;;4.50;99.90;;;;;;6157211;23;20025;-77
2021/11/26 09:28:15;;;;;;;11.52;2.63;;;4.50;99.90;;;;;;6156961;23;20353;-76
2021/11/26 09:30:41;;;;;;;13.07;2.20;;;4.50;99.90;;;;;;6181780;23;20025;-77
2021/11/26 09:33:07;;;;;;;10.75;2.08;;;4.60;99.90;;;;;;6156938;23;20020;-78
2021/11/26 09:35:34;;;;;;;9.70;1.98;;;4.60;99.90;;;;;;6182127;23;20020;-77
2021/11/26 09:38:00;;;;;;;12.38;2.85;;;4.60;99.90;;;;;;6181657;23;20005;-77
2021/11/26 09:40:27;;;;;;;14.65;2.35;;;4.70;99.90;;;;;;6157028;23;20365;-78
2021/11/26 09:42:53;;;;;;;16.77;2.70;;;4.70;99.90;;;;;;6181243;23;20036;-77
2021/11/26 09:45:41;;;;;;;12.13;2.65;;;5.20;99.90;;;;;;6181624;23;20013;-82
2021/11/26 09:48:07;;;;;;;9.98;2.25;;;4.80;99.90;;;;;;6182282;23;20078;-79
2021/11/26 09:50:33;;;;;;;16.48;2.55;;;4.80;99.90;;;;;;6181439;23;20570;-79
2021/11/26 09:53:10;;;;;;;11.70;2.35;;;4.80;99.90;;;;;;6181078;23;20016;-78
2021/11/26 09:55:36;;;;;;;10.50;2.45;;;4.90;99.90;;;;;;6156948;23;20028;-78
2021/11/26 09:58:01;;;;;;;15.40;2.22;;;4.90;99.90;;;;;;6156366;23;20013;-77
2021/11/26 10:00:27;;;;;;;9.55;2.28;;;4.90;99.90;;;;;;6180674;23;20049;-78
2021/11/26 10:02:55;;;;;;;12.27;2.33;;;5.00;99.90;;;;;;6181653;23;20087;-77
2021/11/26 10:05:21;;;;;;;15.18;3.22;;;5.00;99.90;;;;;;6180215;23;20063;-77
2021/11/26 10:07:52;;;;;;;13.10;2.40;;;5.00;99.90;;;;;;6157210;23;20021;-77
2021/11/26 10:10:21;;;;;;;7.03;1.98;;;5.10;99.90;;;;;;6181288;23;20016;-78
2021/11/26 10:12:57;;;;;;;11.70;2.60;;;5.10;99.90;;;;;;6155973;23;20024;-80
2021/11/26 10:15:41;;;;;;;13.48;2.47;;;5.10;99.90;;;;;;6181764;23;20017;-78
2021/11/26 10:18:13;;;;;;;25.95;2.80;;;5.20;99.90;;;;;;6155407;23;20112;-77
2021/11/26 10:20:56;;;;;;;14.70;2.50;;;5.20;99.90;;;;;;6180218;23;20043;-77
2021/11/26 10:23:24;;;;;;;10.05;2.30;;;5.20;99.90;;;;;;6181424;23;20081;-78
2021/11/26 10:25:50;;;;;;;9.02;2.40;;;5.20;99.90;;;;;;6156777;23;20079;-78
2021/11/26 10:28:19;;;;;;;10.02;2.70;;;5.20;99.90;;;;;;6181555;23;20449;-85
2021/11/26 10:30:48;;;;;;;9.40;2.40;;;5.20;99.90;;;;;;6155797;23;20019;-80
2021/11/26 10:33:23;;;;;;;16.25;2.50;;;5.20;99.90;;;;;;6180732;23;20020;-80
2021/11/26 10:36:00;;;;;;;14.13;2.63;;;5.20;99.90;;;;;;6157053;23;20005;-78
2021/11/26 10:38:29;;;;;;;13.23;2.88;;;5.20;99.90;;;;;;6157025;23;20013;-81
2021/11/26 10:41:05;;;;;;;13.60;2.33;;;5.20;99.90;;;;;;6182663;23;20009;-81
2021/11/26 10:43:59;;;;;;;8.23;2.15;;;5.20;99.90;;;;;;6157288;23;20020;-81
2021/11/26 10:57:36;;;;;;;13.65;2.17;;;5.30;99.90;;;;;;6206816;23;20005;-80
2021/11/26 11:00:09;;;;;;;17.58;2.97;;;5.30;99.90;;;;;;6209986;23;20059;-81
2021/11/26 11:02:41;;;;;;;8.65;2.00;;;5.30;99.90;;;;;;6165582;23;20460;-79
2021/11/26 11:05:10;;;;;;;9.65;1.92;;;5.30;99.90;;;;;;6158767;23;20013;-80
2021/11/26 11:07:41;;;;;;;11.10;2.20;;;5.40;99.90;;;;;;6158148;23;20048;-79
2021/11/26 11:10:08;;;;;;;14.05;2.70;;;5.40;99.90;;;;;;6158338;23;20020;-80
2021/11/26 11:12:37;;;;;;;11.35;2.63;;;5.50;99.90;;;;;;6183217;23;20092;-82
2021/11/26 11:15:11;;;;;;;8.00;2.10;;;5.80;99.90;;;;;;6182709;23;20390;-80
2021/11/26 11:17:38;;;;;;;14.13;2.30;;;5.60;99.90;;;;;;6157508;23;20013;-81
2021/11/26 11:20:16;;;;;;;11.23;2.42;;;5.80;99.90;;;;;;6155963;23;20013;-82
2021/11/26 11:22:42;;;;;;;19.73;2.47;;;5.90;99.90;;;;;;6183116;23;20017;-79
2021/11/26 11:25:10;;;;;;;12.35;2.33;;;6.00;99.90;;;;;;6183457;23;20013;-80
2021/11/26 11:27:37;;;;;;;10.63;2.17;;;6.00;99.90;;;;;;6158337;23;20024;-78
2021/11/26 11:30:08;;;;;;;11.63;2.28;;;6.10;99.90;;;;;;6182477;23;20100;-81
2021/11/26 11:32:36;;;;;;;10.32;2.55;;;6.00;99.90;;;;;;6181466;23;20044;-77
2021/11/26 11:35:06;;;;;;;7.85;2.25;;;6.10;99.90;;;;;;6156552;23;20013;-79
2021/11/26 11:37:32;;;;;;;12.73;2.67;;;6.00;99.90;;;;;;6182619;23;20013;-77
2021/11/26 11:40:08;;;;;;;9.32;2.63;;;6.10;99.90;;;;;;6181672;23;20425;-77
2021/11/26 11:42:43;;;;;;;15.00;2.60;;;6.10;99.90;;;;;;6182869;23;20381;-80
2021/11/26 11:45:11;;;;;;;9.40;2.75;;;6.00;99.90;;;;;;6182902;23;20087;-79
2021/11/26 11:47:56;;;;;;;15.85;3.00;;;6.10;99.90;;;;;;6181886;23;20027;-79
2021/11/26 11:50:26;;;;;;;17.35;2.85;;;6.00;99.90;;;;;;6131918;23;20020;-83
2021/11/26 11:53:00;;;;;;;12.35;2.65;;;6.10;99.90;;;;;;6182448;23;20036;-81
2021/11/26 11:55:37;;;;;;;12.55;2.70;;;6.10;99.90;;;;;;6184686;23;20035;-82
2021/11/26 11:58:29;;;;;;;14.23;2.85;;;6.20;99.90;;;;;;6183180;23;20453;-82
2021/11/26 12:00:55;;;;;;;12.00;2.70;;;6.30;99.90;;;;;;6181480;23;20040;-80
2021/11/26 12:03:27;;;;;;;11.88;3.00;;;6.50;99.90;;;;;;6181720;23;20017;-80
2021/11/26 12:06:01;;;;;;;15.57;2.88;;;6.40;99.90;;;;;;6182205;23;20013;-81
2021/11/26 12:08:27;;;;;;;14.93;2.72;;;6.50;99.90;;;;;;6182335;23;20110;-80
2021/11/26 12:10:59;;;;;;;14.65;3.00;;;6.40;99.90;;;;;;6183395;23;20013;-80
2021/11/26 12:13:35;;;;;;;11.98;3.22;;;6.40;99.90;;;;;;6183331;23;20107;-79
2021/11/26 12:16:15;;;;;;;9.40;2.80;;;6.40;99.90;;;;;;6181554;23;20009;-75
2021/11/26 12:18:50;;;;;;;14.13;3.55;;;6.30;99.90;;;;;;6181319;23;20045;-77
2021/11/26 12:21:18;;;;;;;14.27;3.67;;;6.20;99.90;;;;;;6156904;23;20009;-77
2021/11/26 12:24:21;;;;;;;20.95;4.63;;;6.20;99.90;;;;;;6182093;23;20370;-77
2021/11/26 12:26:51;;;;;;;9.10;3.20;;;6.10;99.90;;;;;;6176664;23;20092;-80
2021/11/26 12:29:19;;;;;;;12.93;3.60;;;6.10;99.90;;;;;;6181716;23;20013;-79
2021/11/26 12:31:45;;;;;;;15.75;4.63;;;6.10;99.90;;;;;;6182497;23;20040;-78
2021/11/26 12:34:19;;;;;;;16.48;4.18;;;6.10;99.90;;;;;;6181310;23;20021;-78
2021/11/26 12:36:47;;;;;;;17.23;4.53;;;6.10;99.90;;;;;;6157840;23;20255;-76
2021/11/26 12:39:22;;;;;;;15.65;5.07;;;6.00;99.90;;;;;;6182864;23;20009;-78
2021/11/26 12:41:49;;;;;;;;;;;6.00;99.90;;;;;;6182432;23;20009;-80
2021/11/26 12:44:20;;;;;;;15.48;5.15;;;6.00;99.90;;;;;;6132260;23;19924;-81
2021/11/26 12:46:47;;;;;;;13.68;4.93;;;6.00;99.90;;;;;;6156305;23;20017;-79
2021/11/26 12:52:07;;;;;;;23.05;5.07;;;6.00;99.90;;;;;;6182320;23;20028;-81
2021/11/26 12:54:40;;;;;;;25.35;5.55;;;5.80;99.90;;;;;;6156789;23;20012;-81
2021/11/26 12:57:27;;;;;;;18.38;5.00;;;6.00;99.90;;;;;;6182121;23;20013;-80
2021/11/26 13:00:09;;;;;;;19.08;4.95;;;6.10;99.90;;;;;;6182018;23;20417;-81
2021/11/26 13:02:36;;;;;;;13.45;4.97;;;6.10;99.90;;;;;;6156129;23;20040;-80
2021/11/26 13:05:14;;;;;;;13.52;4.78;;;6.10;99.90;;;;;;6181249;23;20013;-79
2021/11/26 13:07:42;;;;;;;14.07;4.65;;;6.10;99.90;;;;;;6182344;23;20013;-80
2021/11/26 13:10:12;;;;;;;11.45;4.45;;;6.40;99.90;;;;;;6181768;23;20005;-80